createdAt,value
2019-03-30T00:02:36.990Z,34.00
2019-03-30T00:05:59.010Z,29.53
2019-03-30T00:09:15.420Z,30.70
2019-03-30T00:12:55.584Z,30.77
2019-03-30T00:16:00.617Z,31.60
2019-03-30T00:23:19.937Z,32.83
2019-03-30T00:26:37.399Z,31.87
2019-03-30T00:30:04.572Z,34.27
2019-03-30T00:40:07.600Z,31.90
2019-03-30T00:43:13.426Z,33.27
2019-03-30T00:50:38.922Z,32.10
2019-03-30T00:57:37.919Z,32.83
2019-03-30T01:00:33.471Z,33.43
2019-03-30T01:03:16.787Z,36.20
2019-03-30T01:06:13.547Z,31.37
2019-03-30T01:09:06.582Z,34.17
2019-03-30T01:12:02.925Z,35.10
2019-03-30T01:14:56.032Z,36.43
2019-03-30T01:21:10.899Z,33.83
2019-03-30T01:24:02.847Z,33.27
2019-03-30T01:26:40.046Z,39.43
2019-03-30T01:29:37.273Z,36.57
2019-03-30T01:35:55.674Z,32.37
2019-03-30T01:38:34.903Z,33.30
2019-03-30T01:41:11.032Z,35.23
2019-03-30T01:54:40.569Z,30.67
2019-03-30T01:57:33.861Z,30.27
2019-03-30T02:00:12.422Z,33.33
2019-03-30T02:02:57.670Z,34.20
2019-03-30T02:05:40.426Z,34.20
2019-03-30T02:08:14.015Z,32.43
2019-03-30T02:10:48.625Z,31.37
2019-03-30T02:13:19.228Z,32.30
2019-03-30T02:16:00.680Z,30.57
2019-03-30T02:18:31.827Z,30.40
2019-03-30T02:21:02.370Z,32.27
2019-03-30T02:23:35.525Z,33.83
2019-03-30T02:26:15.645Z,32.57
2019-03-30T02:28:47.946Z,30.77
2019-03-30T02:31:22.503Z,32.80
2019-03-30T02:33:58.364Z,32.00
2019-03-30T02:36:37.050Z,29.50
2019-03-30T02:39:38.959Z,32.47
2019-03-30T02:42:12.871Z,27.10
2019-03-30T02:44:44.715Z,31.53
2019-03-30T02:47:19.990Z,30.40
2019-03-30T02:49:53.043Z,27.37
2019-03-30T02:52:25.206Z,29.90
2019-03-30T02:54:57.891Z,28.90
2019-03-30T02:57:31.660Z,29.23
2019-03-30T03:00:02.457Z,26.03
2019-03-30T03:02:33.802Z,25.30
2019-03-30T03:05:03.828Z,26.93
2019-03-30T03:07:33.922Z,26.47
2019-03-30T03:10:08.115Z,21.43
2019-03-30T03:12:39.445Z,22.33
2019-03-30T03:15:11.533Z,24.20
2019-03-30T03:17:45.967Z,23.57
2019-03-30T03:20:16.196Z,23.60
2019-03-30T03:22:46.502Z,23.27
2019-03-30T03:25:16.530Z,26.13
2019-03-30T03:27:46.946Z,27.47
2019-03-30T03:30:17.567Z,26.70
2019-03-30T03:32:49.649Z,27.47
2019-03-30T03:35:22.238Z,29.73
2019-03-30T03:37:52.497Z,32.00
2019-03-30T03:40:22.308Z,31.87
2019-03-30T03:42:52.651Z,30.30
2019-03-30T03:45:24.290Z,31.90
2019-03-30T03:47:55.138Z,26.53
2019-03-30T03:50:47.767Z,28.80
2019-03-30T03:53:18.170Z,33.03
2019-03-30T03:55:48.501Z,27.10
2019-03-30T03:58:19.260Z,29.50
2019-03-30T04:00:52.111Z,30.00
2019-03-30T04:03:23.969Z,30.87
2019-03-30T04:05:59.682Z,25.93
2019-03-30T04:08:30.389Z,28.73
2019-03-30T04:11:00.648Z,30.87
2019-03-30T04:13:32.744Z,30.17
2019-03-30T04:16:06.528Z,31.87
2019-03-30T04:18:38.057Z,31.10
2019-03-30T04:21:10.781Z,33.10
2019-03-30T04:23:40.565Z,28.30
2019-03-30T04:26:11.458Z,30.73
2019-03-30T04:28:44.024Z,32.47
2019-03-30T04:31:13.767Z,33.00
2019-03-30T04:33:45.331Z,29.03
2019-03-30T04:36:22.618Z,29.77
2019-03-30T04:38:52.582Z,29.07
2019-03-30T04:41:24.302Z,30.97
2019-03-30T04:43:54.348Z,31.90
2019-03-30T04:46:24.818Z,29.70
2019-03-30T04:48:55.384Z,30.50
2019-03-30T04:51:29.640Z,29.10
2019-03-30T04:53:59.873Z,27.33
2019-03-30T04:56:30.739Z,27.60
2019-03-30T04:59:00.697Z,30.77
2019-03-30T05:01:30.535Z,28.07
2019-03-30T05:04:00.474Z,29.77
2019-03-30T05:06:31.003Z,26.17
2019-03-30T05:09:00.996Z,28.73
2019-03-30T05:11:30.819Z,26.03
2019-03-30T05:14:00.842Z,27.60
2019-03-30T05:16:30.944Z,27.97
2019-03-30T05:19:00.819Z,28.77
2019-03-30T05:21:31.285Z,26.70
2019-03-30T05:24:02.009Z,27.43
2019-03-30T05:26:33.303Z,25.77
2019-03-30T05:29:03.110Z,28.30
2019-03-30T05:31:33.044Z,26.07
2019-03-30T05:34:03.383Z,25.20
2019-03-30T05:36:33.839Z,27.17
2019-03-30T05:39:05.234Z,29.37
2019-03-30T05:41:35.587Z,27.67
2019-03-30T05:44:05.584Z,28.07
2019-03-30T05:46:36.141Z,28.93
2019-03-30T05:49:07.676Z,26.10
2019-03-30T05:51:37.686Z,28.00
2019-03-30T05:54:07.625Z,27.70
2019-03-30T05:56:37.604Z,25.67
2019-03-30T05:59:07.603Z,29.67
2019-03-30T06:01:38.608Z,29.23
2019-03-30T06:04:09.024Z,27.60
2019-03-30T06:06:45.168Z,28.37
2019-03-30T06:09:15.448Z,27.73
2019-03-30T06:11:45.491Z,28.80
2019-03-30T06:14:17.600Z,30.50
2019-03-30T06:16:47.978Z,29.07
2019-03-30T06:19:18.186Z,33.03
2019-03-30T06:22:05.112Z,30.63
2019-03-30T06:25:01.029Z,29.13
2019-03-30T06:27:35.578Z,27.57
2019-03-30T06:31:18.586Z,29.53
2019-03-30T06:33:51.316Z,29.90
2019-03-30T06:36:41.805Z,30.60
2019-03-30T06:39:25.434Z,30.87
2019-03-30T06:42:00.414Z,32.33
2019-03-30T06:44:32.894Z,31.97
2019-03-30T06:51:42.171Z,31.97
2019-03-30T08:10:04.757Z,18.10
2019-03-30T08:13:02.025Z,18.67
2019-03-30T08:16:17.359Z,20.47
2019-03-30T08:19:42.994Z,18.23
2019-03-30T08:22:58.227Z,16.23
2019-03-30T08:25:35.865Z,16.00
2019-03-30T08:28:22.440Z,16.43
2019-03-30T08:39:03.329Z,13.83
2019-03-30T08:42:29.191Z,19.10
2019-03-30T09:05:48.219Z,15.93
2019-03-30T09:08:24.439Z,15.50
2019-03-30T09:11:16.632Z,16.40
2019-03-30T09:14:21.609Z,14.77
2019-03-30T09:17:14.569Z,15.80
2019-03-30T09:20:09.942Z,14.77
2019-03-30T09:22:44.431Z,15.30
2019-03-30T09:25:16.416Z,13.97
2019-03-30T09:27:47.371Z,17.10
2019-03-30T09:30:19.245Z,14.70
2019-03-30T09:32:50.836Z,16.30
2019-03-30T09:35:30.732Z,15.30
2019-03-30T09:38:03.820Z,15.50
2019-03-30T09:40:41.794Z,14.77
2019-03-30T09:43:12.084Z,15.63
2019-03-30T09:45:49.482Z,15.10
2019-03-30T09:48:21.676Z,15.17
2019-03-30T09:50:53.066Z,15.20
2019-03-30T09:53:25.314Z,13.23
2019-03-30T09:55:56.719Z,16.10
2019-03-30T09:58:47.101Z,12.93
2019-03-30T10:01:21.258Z,18.07
2019-03-30T10:03:52.982Z,13.80
2019-03-30T10:06:33.913Z,13.70
2019-03-30T10:08:57.836Z,14.50
2019-03-30T10:11:48.448Z,15.83
2019-03-30T10:14:24.008Z,14.60
2019-03-30T10:17:01.012Z,15.10
2019-03-30T10:19:31.882Z,15.30
2019-03-30T10:22:01.791Z,14.40
2019-03-30T10:24:37.888Z,14.80
2019-03-30T10:27:03.983Z,14.87
2019-03-30T10:29:34.005Z,15.63
2019-03-30T10:32:04.010Z,17.53
2019-03-30T10:34:34.088Z,13.80
2019-03-30T10:37:04.282Z,15.20
2019-03-30T10:39:37.705Z,17.67
2019-03-30T10:42:10.077Z,14.60
2019-03-30T10:44:46.650Z,13.60
2019-03-30T10:47:21.010Z,13.90
2019-03-30T10:49:51.749Z,14.73
2019-03-30T10:52:21.988Z,14.40
2019-03-30T10:54:53.369Z,15.20
2019-03-30T10:57:32.445Z,14.57
2019-03-30T11:00:15.578Z,13.57
2019-03-30T11:03:17.124Z,12.90
2019-03-30T11:06:18.439Z,14.00
2019-03-30T11:08:49.163Z,12.10
2019-03-30T11:11:23.242Z,14.00
2019-03-30T11:13:57.006Z,9.63
2019-03-30T11:16:28.308Z,13.10
2019-03-30T11:18:58.811Z,12.37
2019-03-30T11:21:33.781Z,11.17
2019-03-30T11:24:09.487Z,12.27
2019-03-30T11:26:49.963Z,10.90
2019-03-30T11:29:24.771Z,10.90
2019-03-30T11:32:15.599Z,9.53
2019-03-30T11:34:53.649Z,8.43
2019-03-30T11:37:24.643Z,12.97
2019-03-30T11:39:55.399Z,10.43
2019-03-30T11:42:38.443Z,9.40
2019-03-30T11:45:11.422Z,11.77
2019-03-30T11:47:55.982Z,8.40
2019-03-30T11:50:29.046Z,9.13
2019-03-30T11:52:59.999Z,12.13
2019-03-30T11:55:30.134Z,11.83
2019-03-30T11:58:00.363Z,11.63
2019-03-30T12:00:30.384Z,12.70
2019-03-30T12:03:00.978Z,10.67
2019-03-30T12:05:32.017Z,8.20
2019-03-30T12:08:03.429Z,9.07
2019-03-30T12:10:33.491Z,10.50
2019-03-30T12:13:03.654Z,12.07
2019-03-30T12:15:33.854Z,12.47
2019-03-30T12:18:03.847Z,8.20
2019-03-30T12:20:33.948Z,9.83
2019-03-30T12:23:03.847Z,9.40
2019-03-30T12:25:36.111Z,7.00
2019-03-30T12:28:09.641Z,8.53
2019-03-30T12:30:41.291Z,7.80
2019-03-30T12:33:12.523Z,8.33
2019-03-30T12:35:43.681Z,8.30
2019-03-30T12:38:14.826Z,8.53
2019-03-30T12:40:44.862Z,8.47
2019-03-30T12:43:24.682Z,6.70
2019-03-30T12:46:00.415Z,8.57
2019-03-30T12:48:37.604Z,8.07
2019-03-30T12:51:10.058Z,8.03
2019-03-30T12:53:50.355Z,7.03
2019-03-30T12:56:22.307Z,10.23
2019-03-30T12:58:58.090Z,9.23
2019-03-30T13:02:02.080Z,8.00
2019-03-30T13:04:39.655Z,7.80
2019-03-30T13:07:24.254Z,6.47
2019-03-30T13:09:54.125Z,9.53
2019-03-30T13:15:26.793Z,9.30
2019-03-30T13:18:02.574Z,7.90
2019-03-30T13:21:00.743Z,8.90
2019-03-30T13:23:30.920Z,8.97
2019-03-30T13:26:27.742Z,8.97
2019-03-30T13:29:30.673Z,9.27
2019-03-30T13:32:18.680Z,8.20
2019-03-30T13:34:49.846Z,8.73
2019-03-30T13:37:20.599Z,10.40
2019-03-30T13:46:54.324Z,11.00
2019-03-30T13:49:30.162Z,10.73
2019-03-30T13:52:26.877Z,12.60
2019-03-30T13:54:56.875Z,10.37
2019-03-30T13:57:27.540Z,10.37
2019-03-30T13:59:57.487Z,10.50
2019-03-30T14:02:28.348Z,10.20
2019-03-30T14:04:58.303Z,11.90
2019-03-30T14:07:28.214Z,9.40
2019-03-30T14:09:58.217Z,11.57
2019-03-30T14:12:28.217Z,12.00
2019-03-30T14:14:58.154Z,12.57
2019-03-30T14:17:28.040Z,11.70
2019-03-30T14:19:58.062Z,11.40
2019-03-30T14:22:28.050Z,11.33
2019-03-30T14:24:58.106Z,12.97
2019-03-30T14:27:28.115Z,12.70
2019-03-30T14:29:57.979Z,13.03
2019-03-30T14:32:28.098Z,13.10
2019-03-30T14:34:57.964Z,12.83
2019-03-30T14:37:27.979Z,10.50
2019-03-30T14:39:58.018Z,12.83
2019-03-30T14:42:27.926Z,10.60
2019-03-30T14:44:57.946Z,12.87
2019-03-30T14:47:27.982Z,10.63
2019-03-30T14:49:58.267Z,12.20
2019-03-30T14:52:28.260Z,12.90
2019-03-30T14:54:58.321Z,13.60
2019-03-30T14:57:28.589Z,12.90
2019-03-30T14:59:58.605Z,11.73
2019-03-30T15:02:28.527Z,9.47
2019-03-30T15:05:00.953Z,13.70
2019-03-30T15:07:30.312Z,11.03
2019-03-30T15:10:01.527Z,11.13
2019-03-30T15:12:31.848Z,14.00
2019-03-30T15:15:01.803Z,13.03
2019-03-30T15:17:31.762Z,12.73
2019-03-30T15:20:01.638Z,9.50
2019-03-30T15:22:31.602Z,13.57
2019-03-30T15:25:01.568Z,11.63
2019-03-30T15:27:31.469Z,11.43
2019-03-30T15:30:02.800Z,12.67
2019-03-30T15:32:33.091Z,12.90
2019-03-30T15:35:04.149Z,11.30
2019-03-30T15:37:34.191Z,11.33
2019-03-30T15:40:04.234Z,12.90
2019-03-30T15:42:34.463Z,11.53
2019-03-30T15:45:05.437Z,12.53
2019-03-30T15:47:35.420Z,13.43
2019-03-30T15:50:05.545Z,12.30
2019-03-30T15:52:35.463Z,14.80
2019-03-30T15:55:05.623Z,12.27
2019-03-30T15:57:35.647Z,11.27
2019-03-30T16:00:07.100Z,11.00
2019-03-30T16:02:37.538Z,11.00
2019-03-30T16:05:10.871Z,12.43
2019-03-30T16:07:41.287Z,10.73
2019-03-30T16:10:12.998Z,12.37
2019-03-30T16:12:43.095Z,11.33
2019-03-30T16:15:13.667Z,11.47
2019-03-30T16:17:44.540Z,14.07
2019-03-30T16:20:15.537Z,13.00
2019-03-30T16:22:45.808Z,11.47
2019-03-30T16:25:17.440Z,12.60
2019-03-30T16:27:47.524Z,12.97
2019-03-30T16:30:17.842Z,12.97
2019-03-30T16:32:47.852Z,12.80
2019-03-30T16:35:18.100Z,14.70
2019-03-30T16:37:48.321Z,13.30
2019-03-30T16:40:18.441Z,12.47
2019-03-30T16:42:48.486Z,14.97
2019-03-30T16:45:18.576Z,14.00
2019-03-30T16:47:50.767Z,13.20
2019-03-30T16:50:25.288Z,12.83
2019-03-30T16:52:57.497Z,13.43
2019-03-30T16:55:34.639Z,14.30
2019-03-30T16:58:07.747Z,14.77
2019-03-30T17:00:55.337Z,14.83
2019-03-30T17:03:14.803Z,13.77
2019-03-30T17:05:59.113Z,13.60
2019-03-30T17:08:40.251Z,14.37
2019-03-30T17:18:42.171Z,13.43
2019-03-30T17:21:22.831Z,12.67
2019-03-30T17:23:55.211Z,15.77
2019-03-30T17:26:30.358Z,13.77
2019-03-30T17:29:04.078Z,16.40
2019-03-30T17:31:57.070Z,13.27
2019-03-30T17:34:29.653Z,14.17
2019-03-30T17:37:00.049Z,15.27
2019-03-30T17:39:30.324Z,14.40
2019-03-30T17:42:01.439Z,13.13
2019-03-30T17:44:32.403Z,13.97
2019-03-30T17:47:03.739Z,14.87
2019-03-30T17:49:36.112Z,14.70
2019-03-30T17:52:06.415Z,16.17
2019-03-30T17:54:39.704Z,16.17
2019-03-30T17:57:08.703Z,14.83
2019-03-30T17:59:40.760Z,14.87
2019-03-30T18:02:11.178Z,16.47
2019-03-30T18:04:41.384Z,15.63
2019-03-30T18:07:13.634Z,17.63
2019-03-30T18:09:43.865Z,16.17
2019-03-30T18:12:14.163Z,17.00
2019-03-30T18:14:44.390Z,14.77
2019-03-30T18:17:14.773Z,15.03
2019-03-30T18:19:45.186Z,15.00
2019-03-30T18:22:17.439Z,15.90
2019-03-30T18:24:47.642Z,16.63
2019-03-30T18:27:17.757Z,15.57
2019-03-30T18:29:48.164Z,15.83
2019-03-30T18:32:18.531Z,15.20
2019-03-30T18:34:48.817Z,16.20
2019-03-30T18:37:18.964Z,16.17
2019-03-30T18:39:49.179Z,16.57
2019-03-30T18:42:19.437Z,17.30
2019-03-30T18:44:49.819Z,17.20
2019-03-30T18:47:19.977Z,16.60
2019-03-30T18:49:52.143Z,17.93
2019-03-30T18:52:22.422Z,16.73
2019-03-30T18:54:52.505Z,17.77
2019-03-30T18:57:22.751Z,16.27
2019-03-30T18:59:53.844Z,17.97
2019-03-30T19:02:24.034Z,17.77
2019-03-30T19:04:54.446Z,16.37
2019-03-30T19:07:24.842Z,16.83
2019-03-30T19:09:55.061Z,17.30
2019-03-30T19:12:25.370Z,17.63
2019-03-30T19:14:55.537Z,18.10
2019-03-30T19:17:25.722Z,16.90
2019-03-30T19:19:55.925Z,18.40
2019-03-30T19:22:26.237Z,17.43
2019-03-30T19:24:56.484Z,17.77
2019-03-30T19:27:26.723Z,20.03
2019-03-30T19:29:56.925Z,18.13
2019-03-30T19:32:27.061Z,17.20
2019-03-30T19:34:57.285Z,18.47
2019-03-30T19:37:27.543Z,19.57
2019-03-30T19:39:57.983Z,18.27
2019-03-30T19:42:28.157Z,19.90
2019-03-30T19:44:59.541Z,20.07
2019-03-30T19:47:29.898Z,17.27
2019-03-30T19:50:00.376Z,19.40
2019-03-30T19:52:39.731Z,21.40
2019-03-30T19:55:02.517Z,19.80
2019-03-30T19:57:32.721Z,20.37
2019-03-30T20:00:03.039Z,20.67
2019-03-30T20:02:33.677Z,20.90
2019-03-30T20:05:04.063Z,20.27
2019-03-30T20:07:34.265Z,22.40
2019-03-30T20:10:04.752Z,21.87
2019-03-30T20:12:35.383Z,21.43
2019-03-30T20:15:06.102Z,21.57
2019-03-30T20:17:36.435Z,21.30
2019-03-30T20:20:07.242Z,19.67
2019-03-30T20:22:37.437Z,19.77
2019-03-30T20:25:08.483Z,21.33
2019-03-30T20:27:38.678Z,22.10
2019-03-30T20:30:11.223Z,22.53
2019-03-30T20:32:43.158Z,21.87
2019-03-30T20:35:14.534Z,23.40
2019-03-30T20:37:45.735Z,24.10
2019-03-30T20:40:15.999Z,26.27
2019-03-30T20:42:46.182Z,25.63
2019-03-30T20:45:17.443Z,27.63
2019-03-30T20:47:48.149Z,30.00
2019-03-30T20:50:18.440Z,32.00
2019-03-30T20:52:48.594Z,31.00
2019-03-30T20:55:18.948Z,33.70
2019-03-30T20:57:49.198Z,35.30
2019-03-30T21:00:20.301Z,35.60
2019-03-30T21:02:50.462Z,32.97
2019-03-30T21:05:20.723Z,36.87
2019-03-30T21:07:50.939Z,32.27
2019-03-30T21:10:23.643Z,34.07
2019-03-30T21:12:53.877Z,35.07
2019-03-30T21:15:24.011Z,35.70
2019-03-30T21:17:55.104Z,34.23
2019-03-30T21:20:25.262Z,37.40
2019-03-30T21:22:55.862Z,35.87
2019-03-30T21:25:26.038Z,36.80
2019-03-30T21:27:56.135Z,40.27
2019-03-30T21:30:26.345Z,40.60
2019-03-30T21:32:56.343Z,38.57
2019-03-30T21:35:27.366Z,40.80
2019-03-30T21:37:58.693Z,41.80
2019-03-30T21:40:28.982Z,42.60
2019-03-30T21:42:59.537Z,42.73
2019-03-30T21:45:30.638Z,42.33
2019-03-30T21:48:00.937Z,42.27
2019-03-30T21:50:31.808Z,46.37
2019-03-30T21:53:01.689Z,41.30
2019-03-30T21:55:32.027Z,44.70
2019-03-30T21:58:01.952Z,47.10
2019-03-30T22:00:36.738Z,45.80
2019-03-30T22:03:08.104Z,46.67
2019-03-30T22:05:39.069Z,45.10
2019-03-30T22:08:09.221Z,49.20
2019-03-30T22:10:40.032Z,52.13
2019-03-30T22:13:10.074Z,53.13
2019-03-30T22:15:39.973Z,48.67
2019-03-30T22:18:10.752Z,50.93
2019-03-30T22:20:40.623Z,48.03
2019-03-30T22:23:10.663Z,52.87
2019-03-30T22:25:40.692Z,50.87
2019-03-30T22:28:10.547Z,45.87
2019-03-30T22:30:40.873Z,46.70
2019-03-30T22:33:10.729Z,53.00
2019-03-30T22:35:40.715Z,50.97
2019-03-30T22:38:10.591Z,49.43
2019-03-30T22:40:44.038Z,51.67
2019-03-30T22:43:13.997Z,51.07
2019-03-30T22:45:46.987Z,50.97
2019-03-30T22:48:16.846Z,49.43
2019-03-30T22:50:46.632Z,50.57
2019-03-30T22:53:16.670Z,52.57
2019-03-30T22:55:46.718Z,51.27
2019-03-30T22:58:16.837Z,53.03
2019-03-30T23:01:07.145Z,54.50
2019-03-30T23:03:37.249Z,55.40
2019-03-30T23:06:07.088Z,55.43
2019-03-30T23:08:36.969Z,52.60
2019-03-30T23:11:07.007Z,55.60
2019-03-30T23:13:36.897Z,51.57
2019-03-30T23:16:07.677Z,51.37
2019-03-30T23:18:37.557Z,54.10
2019-03-30T23:21:08.717Z,55.27
2019-03-30T23:23:38.701Z,57.43
2019-03-30T23:26:08.650Z,55.90
2019-03-30T23:28:38.642Z,57.00
2019-03-30T23:31:10.419Z,53.70
2019-03-30T23:33:40.337Z,57.20
2019-03-30T23:36:10.188Z,53.27
2019-03-30T23:38:40.004Z,57.73
2019-03-30T23:41:09.972Z,56.43
2019-03-30T23:43:40.382Z,59.07
2019-03-30T23:46:10.238Z,59.37
2019-03-30T23:48:40.138Z,55.80
2019-03-30T23:51:10.965Z,55.67
2019-03-30T23:53:40.868Z,63.93
2019-03-30T23:56:24.157Z,61.77
2019-03-30T23:58:54.272Z,59.67
